West Falls, New York
Current Conditions -  °F | °C
As of 10:18 PM on Thursday 27 Nov 2014 (Local Time) from KBUF Reporting Station
Light Snow Light Snow  
Wind Chill: 22°   Ceiling: 3000
Heat Index: 29°   Visibility: 1.5mi
Dew Point: 26°   Wind: 7mph
Humidity: 89%   Direction: 350°N
Pressure: 30.1"   Gusts: NA
Location:  42.7°N, 78.68°W
Report Text: KBUF 280318Z 35006KT 1 1/2SM -SN BR SCT005 OVC030 M02/M03 A3010 RMK AO2 P0000 T10171033
Loading
Personal Weather Stations






























Interactive Weather Map New forecast layout! Learn more

10-Day Weather Forecast

Advertisements
Track Severe Weather on mobile